createdAt,value
2022-10-11T00:00:13.422Z,10.18
2022-10-11T00:02:40.744Z,16.35
2022-10-11T00:05:08.427Z,6.82
2022-10-11T00:07:37.120Z,18.40
2022-10-11T00:10:05.687Z,15.68
2022-10-11T00:12:32.963Z,9.07
2022-10-11T00:15:00.164Z,12.85
2022-10-11T00:17:27.977Z,10.88
2022-10-11T00:19:55.184Z,13.73
2022-10-11T00:22:22.390Z,14.55
2022-10-11T00:24:49.554Z,10.57
2022-10-11T00:27:16.730Z,13.15
2022-10-11T00:29:43.914Z,11.73
2022-10-11T00:32:11.462Z,12.75
2022-10-11T00:34:38.626Z,10.27
2022-10-11T00:37:05.845Z,10.85
2022-10-11T00:39:33.233Z,17.00
2022-10-11T00:42:00.592Z,12.32
2022-10-11T00:44:28.972Z,11.73
2022-10-11T00:47:03.751Z,9.75
2022-10-11T00:49:40.968Z,17.80
2022-10-11T00:52:35.153Z,15.20
2022-10-11T00:55:12.030Z,11.18
2022-10-11T00:57:41.781Z,15.32
2022-10-11T01:00:12.736Z,11.25
2022-10-11T01:02:40.997Z,21.90
2022-10-11T01:07:56.557Z,15.73
2022-10-11T01:10:23.939Z,17.75
2022-10-11T01:13:17.875Z,11.25
2022-10-11T01:15:50.571Z,11.90
2022-10-11T01:19:12.387Z,10.75
2022-10-11T01:21:53.341Z,13.25
2022-10-11T01:24:39.050Z,12.45
2022-10-11T01:27:27.178Z,10.15
2022-10-11T01:30:18.878Z,17.52
2022-10-11T01:32:59.962Z,9.82
2022-10-11T01:35:49.723Z,16.73
2022-10-11T01:38:27.943Z,12.45
2022-10-11T01:41:09.518Z,15.80
2022-10-11T01:43:37.537Z,16.45
2022-10-11T01:46:07.402Z,18.17
2022-10-11T01:48:46.923Z,17.67
2022-10-11T01:54:09.921Z,20.95
2022-10-11T01:56:51.969Z,11.65
2022-10-11T01:59:32.001Z,17.80
2022-10-11T02:02:14.460Z,20.75
2022-10-11T02:04:52.278Z,18.92
2022-10-11T02:07:40.554Z,16.42
2022-10-11T02:10:17.133Z,21.00
2022-10-11T02:12:49.219Z,17.58
2022-10-11T02:15:18.205Z,15.50
2022-10-11T02:17:55.631Z,13.20
2022-10-11T02:20:25.732Z,20.95
2022-10-11T02:22:59.228Z,15.82
2022-10-11T02:25:28.550Z,21.80
2022-10-11T02:30:24.221Z,20.13
2022-10-11T02:32:52.397Z,13.90
2022-10-11T02:35:19.735Z,21.55
2022-10-11T02:38:24.242Z,15.07
2022-10-11T02:40:58.684Z,15.40
2022-10-11T02:43:31.661Z,22.83
2022-10-11T02:46:00.705Z,23.00
2022-10-11T02:48:29.309Z,15.27
2022-10-11T02:50:57.498Z,25.45
2022-10-11T02:53:25.513Z,23.38
2022-10-11T02:55:54.375Z,14.55
2022-10-11T02:58:22.590Z,18.20
2022-10-11T03:00:49.865Z,18.52
2022-10-11T03:03:17.129Z,19.40
2022-10-11T03:05:44.324Z,16.33
2022-10-11T03:08:13.696Z,26.25
2022-10-11T03:13:08.381Z,24.98
2022-10-11T03:15:35.624Z,27.55
2022-10-11T03:18:02.804Z,15.25
2022-10-11T03:20:29.976Z,23.13
2022-10-11T03:22:57.186Z,17.75
2022-10-11T03:25:24.377Z,25.50
2022-10-11T03:27:51.566Z,23.42
2022-10-11T03:30:20.071Z,19.83
2022-10-11T03:32:47.257Z,25.80
2022-10-11T03:35:14.579Z,15.80
2022-10-11T03:37:41.750Z,18.63
2022-10-11T03:40:10.864Z,24.65
2022-10-11T03:42:38.410Z,21.00
2022-10-11T03:45:08.220Z,17.65
2022-10-11T03:47:36.901Z,16.15
2022-10-11T03:50:05.800Z,18.05
2022-10-11T03:52:32.983Z,20.15
2022-10-11T03:55:00.158Z,20.33
2022-10-11T03:57:27.564Z,20.70
2022-10-11T03:59:54.731Z,23.08
2022-10-11T04:02:22.069Z,24.25
2022-10-11T04:04:49.242Z,27.83
2022-10-11T04:07:16.495Z,16.20
2022-10-11T04:09:43.692Z,21.58
2022-10-11T04:12:10.909Z,22.67
2022-10-11T04:14:38.280Z,19.15
2022-10-11T04:17:05.452Z,19.25
2022-10-11T04:19:32.703Z,22.63
2022-10-11T04:21:59.983Z,17.00
2022-10-11T04:24:27.185Z,28.23
2022-10-11T04:26:54.356Z,18.42
2022-10-11T04:29:21.576Z,22.90
2022-10-11T04:31:48.949Z,22.85
2022-10-11T04:34:16.448Z,25.80
2022-10-11T04:36:47.550Z,23.08
2022-10-11T04:39:16.872Z,15.85
2022-10-11T04:41:44.273Z,24.27
2022-10-11T04:44:11.451Z,24.13
2022-10-11T04:46:38.626Z,20.25
2022-10-11T04:49:06.199Z,20.25
2022-10-11T04:51:33.856Z,29.85
2022-10-11T04:54:01.158Z,20.90
2022-10-11T04:56:30.530Z,18.85
2022-10-11T05:01:25.178Z,19.05
2022-10-11T05:03:52.695Z,19.67
2022-10-11T05:06:19.884Z,20.80
2022-10-11T05:08:47.238Z,19.83
2022-10-11T05:11:16.306Z,20.83
2022-10-11T05:13:44.444Z,25.13
2022-10-11T05:16:12.734Z,20.38
2022-10-11T05:18:40.512Z,20.87
2022-10-11T05:21:16.330Z,32.70
2022-10-11T05:23:43.526Z,18.23
2022-10-11T05:26:10.966Z,20.80
2022-10-11T05:28:38.305Z,27.23
2022-10-11T05:31:05.709Z,26.25
2022-10-11T05:33:33.861Z,28.00
2022-10-11T05:36:01.071Z,23.58
2022-10-11T05:38:28.299Z,22.65
2022-10-11T05:40:58.440Z,22.73
2022-10-11T05:43:25.667Z,21.13
2022-10-11T05:45:52.837Z,18.33
2022-10-11T05:48:20.192Z,20.73
2022-10-11T05:50:47.654Z,36.55
2022-10-11T05:53:14.865Z,25.95
2022-10-11T05:55:43.175Z,23.80
2022-10-11T05:58:14.723Z,16.48
2022-10-11T06:00:41.956Z,20.83
2022-10-11T06:03:11.413Z,29.95
2022-10-11T06:05:38.725Z,21.85
2022-10-11T06:08:08.515Z,27.05
2022-10-11T06:10:36.513Z,24.65
2022-10-11T06:13:03.828Z,21.38
2022-10-11T06:15:31.074Z,24.30
2022-10-11T06:17:59.544Z,19.70
2022-10-11T06:20:27.077Z,18.33
2022-10-11T06:22:54.361Z,26.65
2022-10-11T06:25:21.587Z,26.40
2022-10-11T06:27:48.784Z,27.17
2022-10-11T06:30:16.120Z,29.73
2022-10-11T06:32:43.333Z,23.95
2022-10-11T06:35:10.567Z,17.55
2022-10-11T06:37:37.735Z,25.45
2022-10-11T06:40:05.303Z,16.67
2022-10-11T06:42:32.551Z,23.00
2022-10-11T06:45:00.947Z,21.15
2022-10-11T06:47:28.121Z,22.88
2022-10-11T06:49:55.294Z,16.10
2022-10-11T06:52:22.449Z,23.60
2022-10-11T06:54:49.621Z,21.73
2022-10-11T06:57:16.862Z,20.35
2022-10-11T06:59:44.016Z,18.80
2022-10-11T07:02:11.232Z,20.75
2022-10-11T07:04:39.315Z,32.90
2022-10-11T07:07:07.753Z,21.13
2022-10-11T07:09:35.167Z,20.23
2022-10-11T07:12:02.387Z,22.85
2022-10-11T07:14:29.579Z,21.48
2022-10-11T07:16:57.554Z,20.92
2022-10-11T07:19:24.815Z,18.23
2022-10-11T07:21:52.055Z,21.80
2022-10-11T07:24:19.315Z,19.00
2022-10-11T07:26:46.462Z,15.63
2022-10-11T07:29:13.703Z,16.52
2022-10-11T07:31:42.514Z,20.48
2022-10-11T07:34:10.475Z,20.90
2022-10-11T07:36:37.857Z,23.75
2022-10-11T07:39:07.003Z,19.10
2022-10-11T07:41:34.643Z,19.08
2022-10-11T07:44:03.231Z,21.25
2022-10-11T07:46:31.268Z,22.42
2022-10-11T07:48:58.566Z,20.83
2022-10-11T07:51:26.510Z,21.77
2022-10-11T07:54:08.672Z,19.83
2022-10-11T07:56:36.635Z,29.27
2022-10-11T07:59:03.961Z,20.75
2022-10-11T08:01:32.107Z,23.85
2022-10-11T08:04:00.726Z,17.73
2022-10-11T08:06:31.683Z,12.15
2022-10-11T08:09:00.556Z,23.13
2022-10-11T08:11:34.135Z,15.70
2022-10-11T08:14:02.099Z,14.43
2022-10-11T08:16:29.594Z,14.43
2022-10-11T08:18:57.216Z,20.33
2022-10-11T08:21:26.903Z,16.60
2022-10-11T08:23:54.244Z,18.48
2022-10-11T08:26:21.825Z,18.73
2022-10-11T08:28:49.470Z,18.80
2022-10-11T08:31:18.910Z,19.13
2022-10-11T08:33:46.262Z,18.50
2022-10-11T08:36:13.612Z,16.75
2022-10-11T08:38:41.050Z,19.33
2022-10-11T08:41:32.026Z,15.98
2022-10-11T08:44:51.796Z,15.88
2022-10-11T08:47:41.257Z,19.25
2022-10-11T08:50:22.485Z,18.20
2022-10-11T08:52:55.721Z,20.23
2022-10-11T08:55:32.317Z,17.45
2022-10-11T08:57:59.827Z,16.85
2022-10-11T09:00:31.271Z,15.50
2022-10-11T09:03:14.296Z,18.77
2022-10-11T09:06:01.217Z,12.68
2022-10-11T09:08:53.597Z,14.30
2022-10-11T09:12:14.866Z,20.52
2022-10-11T09:14:57.115Z,17.90
2022-10-11T09:17:46.168Z,16.02
2022-10-11T09:20:30.390Z,20.33
2022-10-11T09:23:04.117Z,14.98
2022-10-11T09:25:55.096Z,13.40
2022-10-11T09:28:30.429Z,14.00
2022-10-11T09:30:58.846Z,15.63
2022-10-11T09:33:34.722Z,17.67
2022-10-11T09:36:04.568Z,18.70
2022-10-11T09:38:51.208Z,15.18
2022-10-11T09:41:29.263Z,14.00
2022-10-11T09:43:56.550Z,26.73
2022-10-11T09:46:37.984Z,11.60
2022-10-11T09:49:09.333Z,13.57
2022-10-11T09:51:37.466Z,19.40
2022-10-11T09:54:07.582Z,20.73
2022-10-11T09:56:41.800Z,13.05
2022-10-11T09:59:28.953Z,12.43
2022-10-11T10:02:14.544Z,13.95
2022-10-11T10:05:01.913Z,16.92
2022-10-11T10:07:31.338Z,17.88
2022-10-11T10:10:11.013Z,14.50
2022-10-11T10:12:47.471Z,13.40
2022-10-11T10:15:18.947Z,16.70
2022-10-11T10:17:53.871Z,22.00
2022-10-11T10:20:24.551Z,17.50
2022-10-11T10:22:52.541Z,16.65
2022-10-11T10:25:30.658Z,19.55
2022-10-11T10:28:00.226Z,24.40
2022-10-11T10:30:30.743Z,13.57
2022-10-11T10:33:12.366Z,18.67
2022-10-11T10:38:20.717Z,17.55
2022-10-11T10:41:04.179Z,15.73
2022-10-11T10:43:36.580Z,12.60
2022-10-11T10:46:26.646Z,24.83
2022-10-11T10:49:53.612Z,18.33
2022-10-11T10:52:30.505Z,11.40
2022-10-11T10:55:15.849Z,13.13
2022-10-11T10:57:57.933Z,16.35
2022-10-11T11:00:25.436Z,15.00
2022-10-11T11:03:04.218Z,11.95
2022-10-11T11:05:48.451Z,8.60
2022-10-11T11:08:53.507Z,8.65
2022-10-11T11:11:44.247Z,11.60
2022-10-11T11:14:21.899Z,8.77
2022-10-11T11:17:13.103Z,9.35
2022-10-11T11:19:53.320Z,18.38
2022-10-11T11:22:32.879Z,11.77
2022-10-11T11:25:18.879Z,11.63
2022-10-11T11:28:09.126Z,11.30
2022-10-11T11:30:48.368Z,14.13
2022-10-11T11:36:26.729Z,11.95
2022-10-11T11:39:01.954Z,8.73
2022-10-11T11:41:39.655Z,14.90
2022-10-11T11:44:16.321Z,18.45
2022-10-11T11:46:52.945Z,7.60
2022-10-11T11:49:41.861Z,10.82
2022-10-11T11:52:36.188Z,15.07
2022-10-11T11:55:17.741Z,13.02
2022-10-11T11:58:02.093Z,9.35
2022-10-11T12:00:40.012Z,10.90
2022-10-11T12:03:22.159Z,8.55
2022-10-11T12:06:14.587Z,11.85
2022-10-11T12:08:43.968Z,8.05
2022-10-11T12:11:35.235Z,11.25
2022-10-11T12:14:04.605Z,10.75
2022-10-11T12:19:03.589Z,14.35
2022-10-11T12:21:39.312Z,10.23
2022-10-11T12:24:22.979Z,14.25
2022-10-11T12:26:55.439Z,8.60
2022-10-11T12:29:44.784Z,9.98
2022-10-11T12:32:35.042Z,5.97
2022-10-11T12:35:30.248Z,7.20
2022-10-11T12:38:22.831Z,8.18
2022-10-11T12:40:54.716Z,12.30
2022-10-11T12:43:48.220Z,9.25
2022-10-11T12:46:31.243Z,14.63
2022-10-11T12:49:38.684Z,9.90
2022-10-11T12:52:18.461Z,12.35
2022-10-11T12:55:24.774Z,12.38
2022-10-11T12:58:25.647Z,10.57
2022-10-11T13:01:04.656Z,10.00
2022-10-11T13:03:44.031Z,11.32
2022-10-11T13:06:25.153Z,13.02
2022-10-11T13:09:05.642Z,10.55
2022-10-11T13:11:39.366Z,15.98
2022-10-11T13:14:46.481Z,13.45
2022-10-11T13:17:48.784Z,11.85
2022-10-11T13:20:24.040Z,14.55
2022-10-11T13:22:53.762Z,9.38
2022-10-11T13:25:24.663Z,17.80
2022-10-11T13:31:13.684Z,12.13
2022-10-11T13:33:45.945Z,9.60
2022-10-11T13:36:21.900Z,16.02
2022-10-11T13:38:57.966Z,9.27
2022-10-11T13:41:30.957Z,14.82
2022-10-11T13:44:00.462Z,12.15
2022-10-11T13:46:28.834Z,11.10
2022-10-11T13:49:04.531Z,7.70
2022-10-11T13:51:38.421Z,12.30
2022-10-11T13:54:13.599Z,10.02
2022-10-11T14:00:26.934Z,12.07
2022-10-11T14:03:15.110Z,10.25
2022-10-11T14:05:57.047Z,13.50
2022-10-11T14:08:47.280Z,14.75
2022-10-11T14:11:37.364Z,12.95
2022-10-11T14:18:41.940Z,9.52
2022-10-11T14:24:57.176Z,12.90
2022-10-11T14:27:28.368Z,10.25
2022-10-11T14:30:23.965Z,7.03
2022-10-11T14:33:00.373Z,7.63
2022-10-11T14:35:30.533Z,8.98
2022-10-11T14:37:57.857Z,11.77
2022-10-11T14:40:29.895Z,8.63
2022-10-11T14:42:57.381Z,11.50
2022-10-11T14:48:12.745Z,7.22
2022-10-11T14:50:48.050Z,7.18
2022-10-11T14:53:18.133Z,8.48
2022-10-11T14:56:20.392Z,7.55
2022-10-11T14:58:48.762Z,7.82
2022-10-11T15:01:17.297Z,14.02
2022-10-11T15:03:51.827Z,7.63
2022-10-11T15:06:32.122Z,10.13
2022-10-11T15:09:00.159Z,11.20
2022-10-11T15:11:27.448Z,10.23
2022-10-11T15:13:54.785Z,9.77
2022-10-11T15:16:24.026Z,9.50
2022-10-11T15:21:25.170Z,9.27
2022-10-11T15:23:53.313Z,9.82
2022-10-11T15:26:24.000Z,7.88
2022-10-11T15:28:51.983Z,10.52
2022-10-11T15:31:21.553Z,4.20
2022-10-11T15:33:52.538Z,11.98
2022-10-11T15:36:22.327Z,8.80
2022-10-11T15:38:50.409Z,12.20
2022-10-11T15:41:19.904Z,11.43
2022-10-11T15:43:49.461Z,6.13
2022-10-11T15:46:26.032Z,6.43
2022-10-11T15:48:54.891Z,10.65
2022-10-11T15:51:34.957Z,12.98
2022-10-11T15:54:02.593Z,9.02
2022-10-11T15:56:33.694Z,9.48
2022-10-11T15:59:02.057Z,7.90
2022-10-11T16:01:29.447Z,7.95
2022-10-11T16:04:16.474Z,9.57
2022-10-11T16:06:46.429Z,10.10
2022-10-11T16:09:13.938Z,8.40
2022-10-11T16:11:41.319Z,10.93
2022-10-11T16:14:09.169Z,11.68
2022-10-11T16:16:38.020Z,9.23
2022-10-11T16:19:05.247Z,7.90
2022-10-11T16:21:32.976Z,9.90
2022-10-11T16:24:00.296Z,10.82
2022-10-11T16:26:44.781Z,7.82
2022-10-11T16:29:50.240Z,16.42
2022-10-11T16:32:17.476Z,19.38
2022-10-11T16:34:44.891Z,12.50
2022-10-11T16:37:13.008Z,12.68
2022-10-11T16:39:40.849Z,11.65
2022-10-11T16:42:08.114Z,19.85
2022-10-11T16:44:37.922Z,14.27
2022-10-11T16:47:06.006Z,17.60
2022-10-11T16:49:33.373Z,11.43
2022-10-11T16:52:02.655Z,20.90
2022-10-11T16:57:00.758Z,106.45
2022-10-11T16:59:28.578Z,74.55
2022-10-11T17:01:59.271Z,40.00
2022-10-11T17:04:26.562Z,23.85
2022-10-11T17:06:55.100Z,32.90
2022-10-11T17:09:22.342Z,50.20
2022-10-11T17:11:49.611Z,31.23
2022-10-11T17:14:17.075Z,17.35
2022-10-11T17:16:44.929Z,17.40
2022-10-11T17:19:14.783Z,162.20
2022-10-11T17:21:44.315Z,470.60
2022-10-11T17:24:12.258Z,151.45
2022-10-11T17:26:41.956Z,48.75
2022-10-11T17:29:14.705Z,23.65
2022-10-11T17:31:48.078Z,22.35
2022-10-11T17:34:16.957Z,23.00
2022-10-11T17:36:44.243Z,26.25
2022-10-11T17:39:17.746Z,23.50
2022-10-11T17:41:45.384Z,25.98
2022-10-11T17:44:13.497Z,28.92
2022-10-11T17:46:46.052Z,37.03
2022-10-11T17:49:13.617Z,28.67
2022-10-11T17:51:42.018Z,23.38
2022-10-11T17:54:13.257Z,28.03
2022-10-11T17:56:41.827Z,25.88
2022-10-11T17:59:15.009Z,27.60
2022-10-11T18:01:42.389Z,22.35
2022-10-11T18:04:16.463Z,27.08
2022-10-11T18:06:46.679Z,25.42
2022-10-11T18:09:16.611Z,23.25
2022-10-11T18:11:44.204Z,29.60
2022-10-11T18:14:11.466Z,32.13
2022-10-11T18:16:40.740Z,21.63
2022-10-11T18:21:39.129Z,33.13
2022-10-11T18:24:13.151Z,35.75
2022-10-11T18:26:40.672Z,53.83
2022-10-11T18:29:08.256Z,39.80
2022-10-11T18:31:36.755Z,39.58
2022-10-11T18:34:10.909Z,40.97
2022-10-11T18:36:38.926Z,44.55
2022-10-11T18:39:08.180Z,45.50
2022-10-11T18:44:05.665Z,46.42
2022-10-11T18:46:33.519Z,43.17
2022-10-11T18:49:02.058Z,40.92
2022-10-11T18:51:31.822Z,45.33
2022-10-11T18:53:59.641Z,41.92
2022-10-11T18:56:28.831Z,44.42
2022-10-11T18:58:57.229Z,50.38
2022-10-11T19:01:28.186Z,45.70
2022-10-11T19:03:57.367Z,41.45
2022-10-11T19:06:37.737Z,40.38
2022-10-11T19:09:13.192Z,36.95
2022-10-11T19:11:41.055Z,42.70
2022-10-11T19:14:11.514Z,42.85
2022-10-11T19:16:40.944Z,42.75
2022-10-11T19:19:09.941Z,41.40
2022-10-11T19:21:37.829Z,52.15
2022-10-11T19:24:06.595Z,42.00
2022-10-11T19:26:38.915Z,48.13
2022-10-11T19:29:20.796Z,46.28
2022-10-11T19:31:53.934Z,48.40
2022-10-11T19:34:22.498Z,53.67
2022-10-11T19:36:52.793Z,47.55
2022-10-11T19:39:21.726Z,53.08
2022-10-11T19:41:49.360Z,53.05
2022-10-11T19:44:17.099Z,58.90
2022-10-11T19:46:51.516Z,54.85
2022-10-11T19:49:22.417Z,59.22
2022-10-11T19:51:49.612Z,58.97
2022-10-11T19:54:16.855Z,56.42
2022-10-11T19:56:44.637Z,48.67
2022-10-11T19:59:14.728Z,55.45
2022-10-11T20:01:43.276Z,51.53
2022-10-11T20:04:33.074Z,48.38
2022-10-11T20:07:00.151Z,50.45
2022-10-11T20:09:30.194Z,54.88
2022-10-11T20:11:58.043Z,49.15
2022-10-11T20:14:25.312Z,56.25
2022-10-11T20:16:52.543Z,57.05
2022-10-11T20:19:22.055Z,42.88
2022-10-11T20:21:52.139Z,40.92
2022-10-11T20:24:23.022Z,48.40
2022-10-11T20:26:50.352Z,42.58
2022-10-11T20:29:18.419Z,40.25
2022-10-11T20:31:45.851Z,42.88
2022-10-11T20:34:13.488Z,53.33
2022-10-11T20:36:40.933Z,45.53
2022-10-11T20:39:10.915Z,53.03
2022-10-11T20:41:44.703Z,50.30
2022-10-11T20:44:13.336Z,50.33
2022-10-11T20:46:45.180Z,51.42
2022-10-11T20:49:13.555Z,52.33
2022-10-11T20:51:41.948Z,50.13
2022-10-11T20:54:09.796Z,58.65
2022-10-11T20:56:37.658Z,51.25
2022-10-11T20:59:06.248Z,53.50
2022-10-11T21:01:39.900Z,47.72
2022-10-11T21:04:08.537Z,53.13
2022-10-11T21:06:35.802Z,52.38
2022-10-11T21:09:03.171Z,51.13
2022-10-11T21:11:33.508Z,54.63
2022-10-11T21:14:06.505Z,57.50
2022-10-11T21:16:34.459Z,60.17
2022-10-11T21:19:02.260Z,62.35
2022-10-11T21:21:30.543Z,47.55
2022-10-11T21:24:00.112Z,61.72
2022-10-11T21:26:28.373Z,46.65
2022-10-11T21:28:57.073Z,44.35
2022-10-11T21:31:24.434Z,47.80
2022-10-11T21:33:51.878Z,41.55
2022-10-11T21:36:21.006Z,46.78
2022-10-11T21:38:49.316Z,42.78
2022-10-11T21:41:21.813Z,35.97
2022-10-11T21:43:49.508Z,46.58
2022-10-11T21:46:19.319Z,44.38
2022-10-11T21:48:47.962Z,35.00
2022-10-11T21:51:17.676Z,33.75
2022-10-11T21:53:44.886Z,38.78
2022-10-11T21:56:12.139Z,34.65
2022-10-11T21:58:39.394Z,28.00
2022-10-11T22:01:06.943Z,31.48
2022-10-11T22:03:34.355Z,33.92
2022-10-11T22:06:05.254Z,35.10
2022-10-11T22:08:32.537Z,36.65
2022-10-11T22:11:01.701Z,28.52
2022-10-11T22:13:30.655Z,32.58
2022-10-11T22:15:57.948Z,31.80
2022-10-11T22:18:25.271Z,25.13
2022-10-11T22:20:52.748Z,26.05
2022-10-11T22:23:20.168Z,28.25
2022-10-11T22:25:47.353Z,23.48
2022-10-11T22:28:14.613Z,27.63
2022-10-11T22:30:41.959Z,26.58
2022-10-11T22:33:09.291Z,27.58
2022-10-11T22:35:37.794Z,29.48
2022-10-11T22:38:06.251Z,30.10
2022-10-11T22:40:33.757Z,19.95
2022-10-11T22:43:02.064Z,21.05
2022-10-11T22:45:29.531Z,24.42
2022-10-11T22:47:57.178Z,24.77
2022-10-11T22:50:24.402Z,24.67
2022-10-11T22:52:51.615Z,24.20
2022-10-11T22:55:20.307Z,23.80
2022-10-11T22:57:47.636Z,20.02
2022-10-11T23:00:15.731Z,22.75
2022-10-11T23:02:42.966Z,22.40
2022-10-11T23:05:10.313Z,24.83
2022-10-11T23:07:38.409Z,26.10
2022-10-11T23:10:06.264Z,25.42
2022-10-11T23:12:39.245Z,21.83
2022-10-11T23:15:07.049Z,19.02
2022-10-11T23:17:34.651Z,19.55
2022-10-11T23:20:02.088Z,23.95
2022-10-11T23:22:30.607Z,23.70
2022-10-11T23:24:58.393Z,19.48
2022-10-11T23:27:25.807Z,27.25
2022-10-11T23:29:53.319Z,26.70
2022-10-11T23:32:20.693Z,24.17
2022-10-11T23:34:48.307Z,23.73
2022-10-11T23:37:15.508Z,20.95
2022-10-11T23:39:42.750Z,22.65
2022-10-11T23:42:09.942Z,22.60
2022-10-11T23:44:37.103Z,20.77
2022-10-11T23:47:04.355Z,21.90
2022-10-11T23:49:31.559Z,19.30
2022-10-11T23:51:58.726Z,21.48
2022-10-11T23:54:26.257Z,23.83
2022-10-11T23:56:54.729Z,19.85
2022-10-11T23:59:21.908Z,19.27
